Altona, New York
Current Conditions -  °F | °C
As of 6:53 PM on Monday 22 Dec 2014 (Local Time) from KPBG Reporting Station
Overcast Overcast  
Wind Chill: 23°   Ceiling: 4400
Heat Index: 23°   Visibility: 7mi
Dew Point: 18°   Wind: 3mph
Humidity: 81%   Direction: 340°NNW
Pressure: 30.31"   Gusts: NA
Location:  44.89°N, 73.66°W
Report Text: KPBG 222353Z AUTO 34003KT 7SM OVC044 M05/M08 A3031 RMK AO2 SLP270 T10501078 11044 21056 56004
Loading
Personal Weather Stations






























Interactive Weather Map New forecast layout! Learn more

10-Day Weather Forecast

Advertisements
Track Severe Weather on mobile